Time;durP1;ratioP1;P1;durP2;ratioP2;P2;SDS_P1;SDS_P2;PMS_P1;PMS_P2;Temp;Humidity;BMP_temperature;BMP_pressure;BME280_temperature;BME280_humidity;BME280_pressure;Samples;Min_cycle;Max_cycle;Signal;HPM_P1;HPM_P2
2022/03/28 00:00:05;;;;;;;19.13;10.33;;;;;;;;;;4982818;28;20291;-81
2022/03/28 00:02:33;;;;;;;21.00;10.60;;;;;;;;;;4985836;28;20247;-84
2022/03/28 00:05:00;;;;;;;19.57;9.97;;;;;;;;;;4982300;28;20803;-81
2022/03/28 00:07:27;;;;;;;15.67;9.63;;;;;;;;;;4971647;28;20247;-79
2022/03/28 00:09:55;;;;;;;21.23;10.53;;;;;;;;;;4977430;28;20635;-82
2022/03/28 00:12:22;;;;;;;16.67;10.03;;;;;;;;;;4977587;28;20303;-81
2022/03/28 00:14:49;;;;;;;17.50;10.27;;;;;;;;;;4973347;28;20303;-81
2022/03/28 00:17:17;;;;;;;21.67;10.83;;;;;;;;;;4962425;28;20218;-81
2022/03/28 00:19:44;;;;;;;19.53;10.37;;;;;;;;;;4971395;28;20376;-80
2022/03/28 00:22:11;;;;;;;24.07;11.90;;;;;;;;;;4970417;28;20668;-81
2022/03/28 00:24:39;;;;;;;25.50;12.57;;;;;;;;;;4966070;28;20203;-81
2022/03/28 00:27:06;;;;;;;23.77;11.50;;;;;;;;;;4959772;28;20209;-79
2022/03/28 00:29:33;;;;;;;27.30;12.70;;;;;;;;;;4963494;28;20302;-78
2022/03/28 00:32:00;;;;;;;22.20;12.13;;;;;;;;;;4960986;28;20215;-81
2022/03/28 00:34:28;;;;;;;22.10;11.77;;;;;;;;;;4960493;28;20258;-80
2022/03/28 00:36:55;;;;;;;18.07;11.13;;;;;;;;;;4972619;28;20698;-79
2022/03/28 00:39:22;;;;;;;30.67;15.13;;;;;;;;;;4983001;28;20208;-82
2022/03/28 00:41:50;;;;;;;29.33;15.20;;;;;;;;;;4976195;28;20239;-80
2022/03/28 00:44:18;;;;;;;25.07;12.70;;;;;;;;;;4965698;28;20316;-80
2022/03/28 00:46:45;;;;;;;20.10;11.57;;;;;;;;;;4961972;28;20401;-81
2022/03/28 00:49:13;;;;;;;20.77;11.37;;;;;;;;;;4962747;28;20324;-80
2022/03/28 00:51:40;;;;;;;20.20;11.57;;;;;;;;;;4965270;28;20306;-82
2022/03/28 00:54:08;;;;;;;24.53;12.93;;;;;;;;;;4967038;28;20381;-79
2022/03/28 00:56:36;;;;;;;22.63;12.67;;;;;;;;;;4971835;28;20315;-80
2022/03/28 00:59:04;;;;;;;20.90;11.93;;;;;;;;;;4954237;28;20581;-79
2022/03/28 01:01:31;;;;;;;22.50;11.53;;;;;;;;;;4954544;28;20738;-80
2022/03/28 01:03:59;;;;;;;19.20;11.33;;;;;;;;;;4963179;28;20761;-82
2022/03/28 01:06:26;;;;;;;24.93;12.67;;;;;;;;;;4975220;28;20307;-80
2022/03/28 01:08:54;;;;;;;25.27;13.30;;;;;;;;;;4955818;28;20208;-79
2022/03/28 01:11:22;;;;;;;30.47;16.77;;;;;;;;;;4967832;28;20214;-79
2022/03/28 01:13:49;;;;;;;29.03;16.93;;;;;;;;;;4965634;28;20321;-81
2022/03/28 01:16:17;;;;;;;48.87;25.50;;;;;;;;;;4957975;28;20287;-80
2022/03/28 01:18:48;;;;;;;46.37;26.07;;;;;;;;;;4957253;28;20219;-77
2022/03/28 01:21:17;;;;;;;38.60;22.10;;;;;;;;;;4956110;28;20240;-79
2022/03/28 01:23:44;;;;;;;38.33;19.87;;;;;;;;;;4967074;28;20276;-78
2022/03/28 01:26:14;;;;;;;26.77;15.90;;;;;;;;;;4958074;28;20321;-80
2022/03/28 01:28:41;;;;;;;30.40;16.37;;;;;;;;;;4963793;28;20196;-78
2022/03/28 01:31:09;;;;;;;26.07;14.00;;;;;;;;;;4972258;28;20310;-80
2022/03/28 01:33:36;;;;;;;27.67;15.20;;;;;;;;;;4973104;28;20260;-80
2022/03/28 01:36:04;;;;;;;26.23;15.67;;;;;;;;;;4969368;28;20207;-80
2022/03/28 01:38:31;;;;;;;27.23;16.70;;;;;;;;;;4963285;28;20458;-80
2022/03/28 01:40:58;;;;;;;29.57;16.83;;;;;;;;;;4960594;28;20321;-78
2022/03/28 01:43:25;;;;;;;30.80;18.30;;;;;;;;;;4963228;28;20222;-79
2022/03/28 01:45:53;;;;;;;32.03;17.00;;;;;;;;;;4962909;28;20333;-79
2022/03/28 01:48:21;;;;;;;37.77;19.30;;;;;;;;;;4956063;28;21216;-80
2022/03/28 01:50:48;;;;;;;39.40;18.60;;;;;;;;;;4956852;28;20267;-80
2022/03/28 01:53:15;;;;;;;33.23;18.70;;;;;;;;;;4959672;28;20654;-79
2022/03/28 01:55:42;;;;;;;40.10;20.73;;;;;;;;;;4960922;28;20267;-78
2022/03/28 01:58:11;;;;;;;33.43;19.90;;;;;;;;;;4968944;28;20315;-79
2022/03/28 02:00:38;;;;;;;35.50;18.53;;;;;;;;;;4957520;28;20211;-78
2022/03/28 02:03:06;;;;;;;32.27;17.50;;;;;;;;;;4963348;28;20236;-79
2022/03/28 02:05:33;;;;;;;29.93;17.67;;;;;;;;;;4959531;28;20216;-79
2022/03/28 02:08:02;;;;;;;30.57;17.53;;;;;;;;;;4967135;28;20207;-79
2022/03/28 02:10:29;;;;;;;29.50;17.23;;;;;;;;;;4968240;28;20238;-79
2022/03/28 02:12:56;;;;;;;35.07;17.80;;;;;;;;;;4975641;28;20235;-80
2022/03/28 02:15:23;;;;;;;38.00;18.20;;;;;;;;;;4983939;28;20638;-78
2022/03/28 02:17:51;;;;;;;29.03;16.77;;;;;;;;;;4973897;28;20250;-81
2022/03/28 02:20:19;;;;;;;31.17;17.63;;;;;;;;;;4971669;28;20298;-78
2022/03/28 02:22:47;;;;;;;29.77;17.03;;;;;;;;;;4969902;28;20277;-78
2022/03/28 02:25:15;;;;;;;29.30;15.90;;;;;;;;;;4967648;28;20240;-79
2022/03/28 02:27:43;;;;;;;30.40;16.93;;;;;;;;;;4959683;28;20210;-80
2022/03/28 02:30:12;;;;;;;27.27;15.37;;;;;;;;;;4970248;28;20685;-80
2022/03/28 02:32:39;;;;;;;27.33;15.47;;;;;;;;;;4965127;28;20227;-78
2022/03/28 02:35:07;;;;;;;28.47;14.27;;;;;;;;;;4968868;28;20510;-78
2022/03/28 02:37:34;;;;;;;27.23;15.07;;;;;;;;;;4972662;28;20222;-80
2022/03/28 02:40:01;;;;;;;26.37;14.53;;;;;;;;;;4980686;28;20570;-81
2022/03/28 02:42:29;;;;;;;20.50;12.57;;;;;;;;;;4967156;28;20330;-82
2022/03/28 02:44:57;;;;;;;23.63;13.57;;;;;;;;;;4976594;28;20219;-80
2022/03/28 02:47:24;;;;;;;24.27;13.73;;;;;;;;;;4979454;28;20303;-78
2022/03/28 02:49:51;;;;;;;21.37;13.57;;;;;;;;;;4979993;28;20337;-81
2022/03/28 02:52:19;;;;;;;26.63;14.03;;;;;;;;;;4977767;28;20250;-79
2022/03/28 02:54:46;;;;;;;22.83;13.63;;;;;;;;;;4990010;28;20318;-80
2022/03/28 02:57:13;;;;;;;22.77;13.13;;;;;;;;;;4992207;28;20296;-81
2022/03/28 02:59:41;;;;;;;25.57;13.67;;;;;;;;;;4972756;28;20285;-81
2022/03/28 03:02:08;;;;;;;24.43;11.83;;;;;;;;;;4974707;28;20317;-77
2022/03/28 03:04:36;;;;;;;21.43;12.20;;;;;;;;;;4980298;28;20220;-82
2022/03/28 03:07:03;;;;;;;23.63;12.33;;;;;;;;;;4980928;28;20230;-80
2022/03/28 03:09:30;;;;;;;17.87;11.70;;;;;;;;;;4982935;28;20209;-81
2022/03/28 03:11:58;;;;;;;23.87;12.43;;;;;;;;;;4998599;28;20609;-81
2022/03/28 03:14:27;;;;;;;23.80;12.07;;;;;;;;;;4988148;28;20272;-80
2022/03/28 03:16:54;;;;;;;20.27;11.70;;;;;;;;;;4970886;28;20659;-80
2022/03/28 03:19:22;;;;;;;24.67;11.90;;;;;;;;;;4974109;28;20209;-80
2022/03/28 03:21:49;;;;;;;19.60;11.20;;;;;;;;;;4979411;28;20324;-81
2022/03/28 03:24:17;;;;;;;22.00;11.70;;;;;;;;;;4976168;28;20225;-77
2022/03/28 03:26:44;;;;;;;23.57;12.27;;;;;;;;;;4980042;28;20308;-79
2022/03/28 03:29:11;;;;;;;20.47;11.13;;;;;;;;;;4981544;28;20286;-80
2022/03/28 03:31:41;;;;;;;17.07;10.93;;;;;;;;;;4961058;28;20209;-80
2022/03/28 03:34:09;;;;;;;22.63;12.90;;;;;;;;;;4978418;28;20328;-83
2022/03/28 03:36:36;;;;;;;22.97;11.93;;;;;;;;;;4975707;28;20214;-79
2022/03/28 03:39:04;;;;;;;18.83;11.50;;;;;;;;;;4968774;28;20562;-81
2022/03/28 03:41:31;;;;;;;24.20;11.57;;;;;;;;;;4961068;28;20238;-79
2022/03/28 03:43:58;;;;;;;17.40;10.47;;;;;;;;;;4970849;28;20241;-79
2022/03/28 03:46:28;;;;;;;20.20;11.93;;;;;;;;;;4969067;28;20486;-79
2022/03/28 03:49:04;;;;;;;21.67;11.53;;;;;;;;;;4976208;28;20214;-80
2022/03/28 03:51:32;;;;;;;21.23;11.03;;;;;;;;;;4964389;28;20347;-80
2022/03/28 03:53:59;;;;;;;22.37;11.33;;;;;;;;;;4982761;28;20268;-81
2022/03/28 03:56:28;;;;;;;19.30;11.13;;;;;;;;;;4990189;28;20293;-81
2022/03/28 03:58:59;;;;;;;19.53;10.93;;;;;;;;;;4983332;28;20215;-81
2022/03/28 04:01:26;;;;;;;19.63;12.07;;;;;;;;;;4972051;28;20800;-79
2022/03/28 04:03:54;;;;;;;21.63;12.57;;;;;;;;;;4968779;28;20256;-82
2022/03/28 04:06:21;;;;;;;35.73;17.10;;;;;;;;;;4972218;28;20237;-79
2022/03/28 04:08:49;;;;;;;29.87;15.73;;;;;;;;;;4964989;28;20292;-79
2022/03/28 04:11:16;;;;;;;29.33;15.37;;;;;;;;;;4976048;28;20225;-83
2022/03/28 04:13:44;;;;;;;29.90;16.13;;;;;;;;;;4969938;28;20296;-81
2022/03/28 04:16:11;;;;;;;33.03;16.87;;;;;;;;;;4961796;28;20226;-82
2022/03/28 04:18:38;;;;;;;26.07;15.67;;;;;;;;;;4959162;28;20206;-80
2022/03/28 04:21:05;;;;;;;32.40;16.90;;;;;;;;;;4976596;28;20453;-81
2022/03/28 04:23:32;;;;;;;25.00;14.13;;;;;;;;;;4979506;28;20760;-77
2022/03/28 04:26:00;;;;;;;27.10;14.60;;;;;;;;;;4968938;28;20211;-78
2022/03/28 04:28:27;;;;;;;26.83;14.43;;;;;;;;;;4973175;28;20285;-80
2022/03/28 04:30:54;;;;;;;25.83;14.67;;;;;;;;;;4986155;28;20740;-80
2022/03/28 04:33:21;;;;;;;23.87;14.17;;;;;;;;;;4986098;28;21874;-80
2022/03/28 04:35:49;;;;;;;27.13;14.57;;;;;;;;;;4988698;28;20262;-78
2022/03/28 04:38:16;;;;;;;31.73;16.40;;;;;;;;;;4984309;28;20259;-76
2022/03/28 04:40:43;;;;;;;46.77;25.57;;;;;;;;;;4970388;28;20300;-81
2022/03/28 04:43:10;;;;;;;53.47;28.67;;;;;;;;;;4974917;28;20727;-79
2022/03/28 04:45:38;;;;;;;47.27;25.53;;;;;;;;;;4989159;28;20212;-79
2022/03/28 04:48:05;;;;;;;36.53;20.37;;;;;;;;;;4984067;28;20305;-80
2022/03/28 04:50:32;;;;;;;41.43;24.00;;;;;;;;;;4980213;28;20293;-80
2022/03/28 04:53:00;;;;;;;34.93;18.70;;;;;;;;;;4973686;28;20223;-78
2022/03/28 04:55:31;;;;;;;36.33;18.53;;;;;;;;;;4964341;28;20217;-77
2022/03/28 04:57:58;;;;;;;35.80;19.20;;;;;;;;;;4976583;28;20228;-79
2022/03/28 05:00:26;;;;;;;29.37;17.20;;;;;;;;;;4977642;28;20349;-80
2022/03/28 05:02:54;;;;;;;28.77;15.97;;;;;;;;;;4981183;28;20229;-80
2022/03/28 05:05:21;;;;;;;27.20;16.00;;;;;;;;;;4984942;28;20210;-79
2022/03/28 05:07:48;;;;;;;25.03;15.50;;;;;;;;;;4984433;28;20205;-79
2022/03/28 05:10:16;;;;;;;24.87;14.37;;;;;;;;;;4987707;28;20229;-79
2022/03/28 05:12:43;;;;;;;20.37;12.40;;;;;;;;;;4978568;28;20228;-79
2022/03/28 05:15:10;;;;;;;23.60;11.50;;;;;;;;;;4986442;28;20292;-78
2022/03/28 05:17:37;;;;;;;25.30;12.67;;;;;;;;;;4977538;28;20361;-79
2022/03/28 05:20:05;;;;;;;25.10;13.10;;;;;;;;;;4971486;28;20344;-79
2022/03/28 05:22:32;;;;;;;22.97;12.80;;;;;;;;;;4967255;28;20263;-81
2022/03/28 05:25:00;;;;;;;21.03;12.63;;;;;;;;;;4974585;28;20214;-79
2022/03/28 05:27:28;;;;;;;24.53;12.57;;;;;;;;;;4983330;28;20218;-79
2022/03/28 05:29:55;;;;;;;30.67;12.73;;;;;;;;;;4988479;28;20206;-81
2022/03/28 05:32:22;;;;;;;30.03;11.63;;;;;;;;;;4979770;28;20231;-77
2022/03/28 05:34:49;;;;;;;24.60;11.80;;;;;;;;;;4983770;28;20340;-76
2022/03/28 05:37:17;;;;;;;20.40;10.10;;;;;;;;;;4998734;28;21223;-83
2022/03/28 05:39:45;;;;;;;18.73;9.77;;;;;;;;;;4972523;28;20207;-80
2022/03/28 05:42:17;;;;;;;28.00;12.10;;;;;;;;;;4972262;28;20303;-79
2022/03/28 05:44:45;;;;;;;24.67;11.37;;;;;;;;;;4977589;28;20693;-77
2022/03/28 05:47:12;;;;;;;23.73;11.83;;;;;;;;;;4968964;28;20216;-77
2022/03/28 05:49:40;;;;;;;27.33;12.90;;;;;;;;;;4975428;28;20547;-81
2022/03/28 05:52:08;;;;;;;25.40;14.17;;;;;;;;;;4978448;28;20212;-76
2022/03/28 05:54:37;;;;;;;23.33;12.67;;;;;;;;;;4980737;28;20209;-77
2022/03/28 05:57:05;;;;;;;23.73;13.17;;;;;;;;;;4969494;28;20303;-78
2022/03/28 05:59:33;;;;;;;21.77;11.37;;;;;;;;;;4973477;28;20259;-80
2022/03/28 06:02:00;;;;;;;24.97;13.23;;;;;;;;;;4970111;28;20302;-78
2022/03/28 06:04:28;;;;;;;21.70;12.17;;;;;;;;;;4985675;28;20230;-79
2022/03/28 06:06:55;;;;;;;23.47;12.23;;;;;;;;;;4986835;28;20218;-81
2022/03/28 06:09:22;;;;;;;23.40;12.27;;;;;;;;;;4976874;28;20199;-79
2022/03/28 06:11:50;;;;;;;23.73;13.00;;;;;;;;;;4985265;28;20242;-80
2022/03/28 06:14:17;;;;;;;23.13;13.47;;;;;;;;;;4990767;28;20284;-79
2022/03/28 06:16:44;;;;;;;25.20;13.30;;;;;;;;;;4983804;28;20295;-79
2022/03/28 06:19:11;;;;;;;24.97;14.83;;;;;;;;;;4980271;28;20203;-78
2022/03/28 06:21:39;;;;;;;23.73;13.47;;;;;;;;;;4981955;28;20766;-79
2022/03/28 06:24:07;;;;;;;22.03;13.20;;;;;;;;;;4984985;28;20262;-80
2022/03/28 06:26:35;;;;;;;23.10;12.87;;;;;;;;;;4989727;28;20234;-79
2022/03/28 06:29:02;;;;;;;21.63;12.87;;;;;;;;;;4983685;28;20664;-78
2022/03/28 06:31:30;;;;;;;22.43;13.10;;;;;;;;;;4980745;28;20200;-79
2022/03/28 06:34:01;;;;;;;25.00;12.97;;;;;;;;;;4983779;28;20239;-80
2022/03/28 06:36:30;;;;;;;24.27;13.93;;;;;;;;;;4976942;28;20237;-78
2022/03/28 06:38:57;;;;;;;24.20;12.83;;;;;;;;;;4985038;28;20852;-81
2022/03/28 06:41:25;;;;;;;21.90;12.33;;;;;;;;;;4971468;28;20248;-79
2022/03/28 06:43:52;;;;;;;29.13;14.40;;;;;;;;;;4979538;28;20235;-78
2022/03/28 06:46:24;;;;;;;20.30;12.00;;;;;;;;;;4984590;28;20311;-79
2022/03/28 06:48:54;;;;;;;22.53;12.10;;;;;;;;;;4985948;28;20250;-77
2022/03/28 06:51:21;;;;;;;21.70;11.57;;;;;;;;;;4988005;28;20204;-80
2022/03/28 06:53:49;;;;;;;19.93;11.43;;;;;;;;;;4979962;28;20362;-78
2022/03/28 06:56:17;;;;;;;21.30;11.53;;;;;;;;;;4973045;28;20208;-79
2022/03/28 06:58:44;;;;;;;18.13;11.03;;;;;;;;;;4986897;28;20228;-82
2022/03/28 07:01:12;;;;;;;23.40;11.17;;;;;;;;;;4983283;28;20726;-80
2022/03/28 07:03:40;;;;;;;25.50;11.60;;;;;;;;;;4988923;28;20769;-79
2022/03/28 07:06:10;;;;;;;25.43;12.23;;;;;;;;;;4975418;28;20220;-79
2022/03/28 07:08:37;;;;;;;28.67;12.60;;;;;;;;;;4967055;28;20222;-78
2022/03/28 07:11:04;;;;;;;25.87;11.90;;;;;;;;;;4984261;28;20204;-81
2022/03/28 07:13:32;;;;;;;24.93;12.23;;;;;;;;;;4987143;28;20326;-79
2022/03/28 07:15:59;;;;;;;28.33;11.80;;;;;;;;;;4982785;28;20287;-81
2022/03/28 07:18:27;;;;;;;23.70;11.97;;;;;;;;;;4978589;28;20227;-78
2022/03/28 07:20:54;;;;;;;21.20;10.93;;;;;;;;;;4975019;28;20688;-80
2022/03/28 07:23:27;;;;;;;19.00;10.57;;;;;;;;;;4981935;28;20250;-78
2022/03/28 07:25:56;;;;;;;18.93;10.90;;;;;;;;;;4982768;28;20239;-80
2022/03/28 07:28:23;;;;;;;19.20;10.93;;;;;;;;;;4983849;28;20607;-80
2022/03/28 07:30:50;;;;;;;20.90;10.87;;;;;;;;;;4989759;28;20204;-79
2022/03/28 07:33:18;;;;;;;19.77;11.13;;;;;;;;;;4991667;28;20243;-81
2022/03/28 07:35:45;;;;;;;20.80;10.73;;;;;;;;;;4987240;28;20209;-78
2022/03/28 07:38:12;;;;;;;19.10;10.73;;;;;;;;;;4998696;28;20259;-81
2022/03/28 07:40:44;;;;;;;19.57;12.03;;;;;;;;;;4985762;28;20239;-78
2022/03/28 07:43:12;;;;;;;18.63;10.87;;;;;;;;;;4987896;28;20258;-81
2022/03/28 07:45:39;;;;;;;17.60;10.70;;;;;;;;;;4991296;28;20314;-79
2022/03/28 07:48:07;;;;;;;20.77;11.07;;;;;;;;;;4984300;28;20208;-81
2022/03/28 07:50:34;;;;;;;21.47;11.10;;;;;;;;;;4981733;28;20617;-81
2022/03/28 07:53:02;;;;;;;17.07;11.10;;;;;;;;;;4985565;28;20746;-82
2022/03/28 07:55:29;;;;;;;16.17;10.23;;;;;;;;;;4970255;28;20441;-81
2022/03/28 07:57:59;;;;;;;19.57;10.90;;;;;;;;;;4973508;28;20301;-81
2022/03/28 08:00:29;;;;;;;20.70;11.70;;;;;;;;;;4971238;28;20272;-80
2022/03/28 08:02:57;;;;;;;20.70;11.17;;;;;;;;;;4988705;28;20228;-77
2022/03/28 08:05:25;;;;;;;17.00;11.37;;;;;;;;;;4982339;28;20623;-80
2022/03/28 08:07:52;;;;;;;19.83;12.47;;;;;;;;;;4983797;28;20201;-80
2022/03/28 08:10:21;;;;;;;18.27;11.17;;;;;;;;;;4974429;28;20598;-77
2022/03/28 08:12:49;;;;;;;21.53;11.13;;;;;;;;;;4973614;28;20232;-80
2022/03/28 08:15:17;;;;;;;18.10;11.80;;;;;;;;;;4979297;28;20258;-82
2022/03/28 08:17:44;;;;;;;20.23;12.53;;;;;;;;;;4989450;28;20287;-81
2022/03/28 08:20:12;;;;;;;19.47;12.30;;;;;;;;;;4972114;28;20208;-80
2022/03/28 08:22:41;;;;;;;16.33;11.30;;;;;;;;;;4984975;28;20323;-79
2022/03/28 08:25:08;;;;;;;22.30;11.80;;;;;;;;;;4982131;28;20212;-79
2022/03/28 08:27:35;;;;;;;17.60;11.43;;;;;;;;;;4983441;28;20232;-79
2022/03/28 08:30:03;;;;;;;22.40;11.77;;;;;;;;;;4972665;28;21237;-79
2022/03/28 08:32:31;;;;;;;18.90;11.70;;;;;;;;;;4988627;28;20252;-81
2022/03/28 08:34:58;;;;;;;19.33;11.20;;;;;;;;;;4991408;28;20303;-80
2022/03/28 08:37:27;;;;;;;18.10;11.97;;;;;;;;;;4985693;28;20247;-81
2022/03/28 08:39:55;;;;;;;20.67;12.53;;;;;;;;;;4972801;28;20262;-80
2022/03/28 08:42:23;;;;;;;17.97;11.30;;;;;;;;;;4989285;28;20281;-80
2022/03/28 08:44:51;;;;;;;19.57;11.20;;;;;;;;;;4981163;28;20240;-80
2022/03/28 08:47:19;;;;;;;17.00;10.97;;;;;;;;;;4986231;28;20232;-79
2022/03/28 08:49:50;;;;;;;17.77;9.87;;;;;;;;;;4982053;28;20244;-80
2022/03/28 08:52:18;;;;;;;14.93;10.23;;;;;;;;;;4971013;28;20231;-80
2022/03/28 08:54:45;;;;;;;14.87;10.50;;;;;;;;;;4976327;28;20219;-77
2022/03/28 08:57:13;;;;;;;16.30;10.73;;;;;;;;;;4983821;28;20211;-80
2022/03/28 08:59:40;;;;;;;14.80;10.43;;;;;;;;;;4978417;28;20232;-78
2022/03/28 09:02:29;;;;;;;16.83;10.63;;;;;;;;;;4980781;28;20350;-78
2022/03/28 09:04:56;;;;;;;15.33;10.57;;;;;;;;;;4965425;28;20213;-78
2022/03/28 09:07:27;;;;;;;16.13;10.90;;;;;;;;;;4983011;28;20300;-80
2022/03/28 09:09:58;;;;;;;16.37;10.00;;;;;;;;;;4985335;28;20224;-77
2022/03/28 09:12:26;;;;;;;17.37;10.30;;;;;;;;;;4984306;28;20228;-79
2022/03/28 09:14:57;;;;;;;14.03;9.97;;;;;;;;;;4965805;28;20975;-79
2022/03/28 09:17:25;;;;;;;15.70;10.63;;;;;;;;;;4977932;28;20272;-79
2022/03/28 09:19:54;;;;;;;16.57;10.47;;;;;;;;;;4981706;28;20299;-79
2022/03/28 09:22:25;;;;;;;17.17;11.57;;;;;;;;;;4981920;28;20212;-79
2022/03/28 09:24:53;;;;;;;15.10;10.50;;;;;;;;;;4988528;28;20220;-80
2022/03/28 09:27:25;;;;;;;16.60;10.27;;;;;;;;;;4982138;28;20402;-76
2022/03/28 09:29:55;;;;;;;13.40;10.23;;;;;;;;;;4983890;28;20254;-78
2022/03/28 09:32:24;;;;;;;14.93;9.93;;;;;;;;;;4969283;28;20235;-78
2022/03/28 09:35:06;;;;;;;15.80;10.60;;;;;;;;;;4982396;28;20219;-77
2022/03/28 09:37:52;;;;;;;16.00;10.17;;;;;;;;;;4980826;28;20307;-79
2022/03/28 09:40:23;;;;;;;14.87;10.23;;;;;;;;;;4981434;28;20304;-80
2022/03/28 09:42:51;;;;;;;14.37;10.30;;;;;;;;;;4982165;28;20401;-81
2022/03/28 09:45:21;;;;;;;15.07;10.43;;;;;;;;;;4983996;28;20959;-80
2022/03/28 09:47:59;;;;;;;15.60;10.20;;;;;;;;;;4983321;28;20239;-79
2022/03/28 09:50:27;;;;;;;14.87;10.47;;;;;;;;;;4987121;28;20291;-79
2022/03/28 09:53:17;;;;;;;14.37;10.13;;;;;;;;;;4977502;28;20231;-79
2022/03/28 09:55:47;;;;;;;13.60;9.50;;;;;;;;;;4984031;28;20232;-78
2022/03/28 09:58:39;;;;;;;14.60;9.70;;;;;;;;;;4982018;28;20663;-80
2022/03/28 10:01:09;;;;;;;15.17;10.23;;;;;;;;;;4981579;28;20204;-77
2022/03/28 10:03:37;;;;;;;13.00;9.53;;;;;;;;;;4972684;28;20233;-78
2022/03/28 10:06:06;;;;;;;15.60;9.83;;;;;;;;;;4982483;28;20212;-79
2022/03/28 10:08:34;;;;;;;15.33;10.30;;;;;;;;;;4971220;28;20208;-80
2022/03/28 10:11:02;;;;;;;15.30;10.30;;;;;;;;;;4983471;28;20212;-79
2022/03/28 10:13:30;;;;;;;16.63;10.30;;;;;;;;;;4969607;28;20232;-80
2022/03/28 10:15:58;;;;;;;15.00;10.07;;;;;;;;;;4975004;28;20196;-78
2022/03/28 10:18:33;;;;;;;13.30;10.27;;;;;;;;;;4979231;28;20711;-78
2022/03/28 10:21:16;;;;;;;14.23;9.33;;;;;;;;;;4985275;28;20286;-80
2022/03/28 10:23:44;;;;;;;16.07;9.27;;;;;;;;;;4981870;28;20280;-80
2022/03/28 10:26:12;;;;;;;13.03;9.37;;;;;;;;;;4976190;28;20263;-81
2022/03/28 10:28:40;;;;;;;13.47;9.53;;;;;;;;;;4977213;28;20255;-78
2022/03/28 10:31:08;;;;;;;14.97;10.40;;;;;;;;;;4975996;28;20220;-79
2022/03/28 10:33:55;;;;;;;15.33;9.73;;;;;;;;;;4980109;28;20231;-78
2022/03/28 10:36:27;;;;;;;16.07;9.80;;;;;;;;;;4974724;28;20623;-78
2022/03/28 10:38:57;;;;;;;16.13;10.27;;;;;;;;;;4979176;28;20746;-80
2022/03/28 10:41:26;;;;;;;15.60;10.20;;;;;;;;;;4980407;28;20228;-79
2022/03/28 10:44:02;;;;;;;14.10;10.37;;;;;;;;;;4978585;28;20305;-80
2022/03/28 10:46:34;;;;;;;15.00;10.52;;;;;;;;;;4982430;28;20241;-79
2022/03/28 10:49:01;;;;;;;13.88;10.20;;;;;;;;;;4986140;28;20645;-79
2022/03/28 10:51:30;;;;;;;13.63;10.68;;;;;;;;;;4971913;28;20711;-79
2022/03/28 10:53:59;;;;;;;15.82;10.55;;;;;;;;;;4978544;28;20230;-79
2022/03/28 10:56:33;;;;;;;16.83;10.15;;;;;;;;;;4986846;28;20211;-82
2022/03/28 10:59:08;;;;;;;14.68;10.27;;;;;;;;;;4983972;28;20199;-81
2022/03/28 11:01:35;;;;;;;16.67;10.27;;;;;;;;;;4981540;28;20207;-79
2022/03/28 11:04:15;;;;;;;15.48;10.70;;;;;;;;;;4976700;28;21623;-79
2022/03/28 11:06:46;;;;;;;15.32;10.82;;;;;;;;;;4982790;28;20204;-80
2022/03/28 11:09:13;;;;;;;15.93;10.40;;;;;;;;;;4982999;28;20225;-77
2022/03/28 11:11:57;;;;;;;16.90;11.10;;;;;;;;;;4971429;28;20304;-78
2022/03/28 11:14:44;;;;;;;12.80;10.32;;;;;;;;;;4969293;28;20612;-79
2022/03/28 11:17:34;;;;;;;13.45;10.88;;;;;;;;;;4983285;28;20230;-80
2022/03/28 11:20:03;;;;;;;16.08;11.05;;;;;;;;;;4961770;28;20595;-80
2022/03/28 11:22:41;;;;;;;16.73;11.10;;;;;;;;;;4980463;28;20247;-80
2022/03/28 11:25:27;;;;;;;15.02;10.57;;;;;;;;;;4983695;28;20263;-79
2022/03/28 11:28:08;;;;;;;15.20;10.55;;;;;;;;;;4984254;28;20231;-80
2022/03/28 11:30:39;;;;;;;15.85;10.77;;;;;;;;;;4974886;28;20507;-78
2022/03/28 11:33:11;;;;;;;11.90;9.15;;;;;;;;;;4981538;28;20235;-79
2022/03/28 11:35:39;;;;;;;15.35;10.93;;;;;;;;;;4977048;28;20733;-79
2022/03/28 11:38:07;;;;;;;13.43;10.18;;;;;;;;;;4977653;28;20753;-80
2022/03/28 11:40:39;;;;;;;14.57;10.55;;;;;;;;;;4979146;28;20343;-81
2022/03/28 11:43:06;;;;;;;13.00;9.82;;;;;;;;;;4983666;28;20303;-78
2022/03/28 11:45:34;;;;;;;12.90;9.95;;;;;;;;;;4978250;28;21019;-81
2022/03/28 11:48:02;;;;;;;13.90;10.18;;;;;;;;;;4972920;28;20208;-81
2022/03/28 11:50:32;;;;;;;12.07;9.48;;;;;;;;;;4978532;28;20272;-79
2022/03/28 11:52:59;;;;;;;13.68;10.25;;;;;;;;;;4976462;28;20220;-79
2022/03/28 11:55:29;;;;;;;16.55;10.82;;;;;;;;;;4987100;28;20266;-78
2022/03/28 11:58:16;;;;;;;13.95;10.38;;;;;;;;;;4980998;28;20230;-78
2022/03/28 12:00:48;;;;;;;17.35;10.13;;;;;;;;;;4984195;28;21475;-79
2022/03/28 12:03:16;;;;;;;16.73;10.95;;;;;;;;;;4990123;28;20337;-77
2022/03/28 12:05:45;;;;;;;14.63;10.75;;;;;;;;;;4987189;28;20644;-79
2022/03/28 12:08:14;;;;;;;14.68;10.75;;;;;;;;;;4966750;28;20201;-80
2022/03/28 12:10:46;;;;;;;13.55;10.38;;;;;;;;;;4975929;28;20303;-78
2022/03/28 12:13:13;;;;;;;14.55;9.68;;;;;;;;;;4983071;28;20244;-78
2022/03/28 12:15:46;;;;;;;19.48;9.88;;;;;;;;;;4983529;28;20326;-77
2022/03/28 12:18:14;;;;;;;14.32;10.50;;;;;;;;;;4987407;28;20255;-79
2022/03/28 12:20:43;;;;;;;13.90;10.20;;;;;;;;;;4979987;28;20236;-79
2022/03/28 12:23:12;;;;;;;14.35;10.15;;;;;;;;;;4988246;28;20259;-80
2022/03/28 12:25:40;;;;;;;13.32;9.98;;;;;;;;;;4975612;28;20315;-79
2022/03/28 12:28:08;;;;;;;13.65;9.32;;;;;;;;;;4984434;28;20209;-79
2022/03/28 12:30:40;;;;;;;12.63;9.73;;;;;;;;;;4980104;28;20203;-78
2022/03/28 12:33:13;;;;;;;13.13;9.40;;;;;;;;;;4986273;28;20642;-79
2022/03/28 12:36:03;;;;;;;11.77;8.50;;;;;;;;;;4970933;28;20303;-77
2022/03/28 12:38:35;;;;;;;13.13;9.15;;;;;;;;;;4972131;28;20223;-78
2022/03/28 12:41:05;;;;;;;15.70;10.45;;;;;;;;;;4982008;28;20248;-79
2022/03/28 12:43:33;;;;;;;13.18;9.40;;;;;;;;;;4977797;28;20726;-80
2022/03/28 12:46:02;;;;;;;11.25;8.82;;;;;;;;;;4986752;28;20739;-79
2022/03/28 12:48:37;;;;;;;14.32;9.13;;;;;;;;;;4966958;28;20228;-79
2022/03/28 12:51:05;;;;;;;11.50;8.70;;;;;;;;;;4976077;28;20479;-79
2022/03/28 12:53:33;;;;;;;10.43;8.02;;;;;;;;;;4984458;28;20303;-79
2022/03/28 12:56:13;;;;;;;11.57;7.88;;;;;;;;;;4972140;28;20215;-80
2022/03/28 12:58:42;;;;;;;12.05;8.20;;;;;;;;;;4967410;28;20223;-79
2022/03/28 13:01:10;;;;;;;10.65;7.50;;;;;;;;;;4978240;28;20716;-79
2022/03/28 13:03:38;;;;;;;11.55;7.80;;;;;;;;;;4984290;28;20255;-80
2022/03/28 13:06:13;;;;;;;11.25;8.63;;;;;;;;;;4974128;28;20215;-82
2022/03/28 13:08:41;;;;;;;12.05;8.85;;;;;;;;;;4968748;28;20742;-79
2022/03/28 13:11:16;;;;;;;9.75;8.10;;;;;;;;;;4977592;28;20294;-80
2022/03/28 13:13:44;;;;;;;12.63;8.00;;;;;;;;;;4983484;28;20334;-80
2022/03/28 13:16:11;;;;;;;14.05;8.80;;;;;;;;;;4984243;28;20284;-80
2022/03/28 13:18:39;;;;;;;10.57;8.18;;;;;;;;;;4980818;28;20323;-77
2022/03/28 13:21:14;;;;;;;10.63;8.10;;;;;;;;;;4974441;28;20631;-77
2022/03/28 13:23:42;;;;;;;11.15;8.25;;;;;;;;;;4973973;28;20319;-78
2022/03/28 13:26:17;;;;;;;10.35;7.70;;;;;;;;;;4980206;28;20543;-80
2022/03/28 13:28:45;;;;;;;15.23;7.97;;;;;;;;;;4985335;28;20302;-81
2022/03/28 13:31:14;;;;;;;10.15;7.65;;;;;;;;;;4978161;28;20290;-79
2022/03/28 13:33:41;;;;;;;10.57;7.97;;;;;;;;;;4976751;28;20738;-80
2022/03/28 13:36:08;;;;;;;9.35;7.43;;;;;;;;;;4981196;28;20625;-80
2022/03/28 13:38:41;;;;;;;11.38;7.55;;;;;;;;;;4977776;28;20212;-81
2022/03/28 13:41:09;;;;;;;10.07;7.63;;;;;;;;;;4970788;28;22880;-79
2022/03/28 13:43:36;;;;;;;11.38;8.40;;;;;;;;;;4982885;28;20288;-79
2022/03/28 13:46:08;;;;;;;13.52;8.77;;;;;;;;;;4979151;28;20220;-80
2022/03/28 13:48:35;;;;;;;11.88;9.32;;;;;;;;;;4979043;28;20299;-80
2022/03/28 13:51:03;;;;;;;15.38;10.93;;;;;;;;;;4978159;28;20206;-81
2022/03/28 13:53:50;;;;;;;12.63;9.60;;;;;;;;;;4985937;28;20550;-82
2022/03/28 13:56:17;;;;;;;12.35;9.05;;;;;;;;;;4968295;28;20326;-80
2022/03/28 13:58:44;;;;;;;11.82;9.07;;;;;;;;;;4977902;28;20445;-80
2022/03/28 14:01:12;;;;;;;13.27;8.70;;;;;;;;;;4978867;28;20220;-80
2022/03/28 14:03:39;;;;;;;11.25;8.55;;;;;;;;;;4979448;28;20232;-80
2022/03/28 14:06:07;;;;;;;12.45;8.50;;;;;;;;;;4976616;28;20343;-81
2022/03/28 14:08:36;;;;;;;13.85;8.57;;;;;;;;;;4976718;28;20228;-79
2022/03/28 14:11:10;;;;;;;14.20;9.90;;;;;;;;;;4980514;28;20208;-79
2022/03/28 14:13:38;;;;;;;11.95;8.70;;;;;;;;;;4977592;28;21271;-83
2022/03/28 14:16:05;;;;;;;11.57;8.88;;;;;;;;;;4968753;28;20217;-80
2022/03/28 14:18:33;;;;;;;14.20;9.80;;;;;;;;;;4963658;28;20201;-81
2022/03/28 14:21:00;;;;;;;13.77;9.57;;;;;;;;;;4964220;28;20272;-78
2022/03/28 14:23:28;;;;;;;11.23;9.13;;;;;;;;;;4965612;28;20267;-76
2022/03/28 14:25:58;;;;;;;16.40;10.05;;;;;;;;;;4962655;28;20234;-76
2022/03/28 14:28:25;;;;;;;12.98;9.30;;;;;;;;;;4960754;28;21638;-80